Time;durP1;ratioP1;P1;durP2;ratioP2;P2;SDS_P1;SDS_P2;PMS_P1;PMS_P2;Temp;Humidity;BMP_temperature;BMP_pressure;BME280_temperature;BME280_humidity;BME280_pressure;Samples;Min_cycle;Max_cycle;Signal;HPM_P1;HPM_P2
2024/03/11 00:00:24;;;;;;;39.60;25.13;;;;;;;-146.25;100.00;52483.78;2096264;28;36651;-65
2024/03/11 00:01:26;;;;;;;38.60;25.55;;;;;;;-146.25;100.00;52520.28;2096101;28;35483;-65
2024/03/11 00:02:28;;;;;;;42.35;25.73;;;;;;;-146.25;100.00;52508.09;2096505;28;35462;-63
2024/03/11 00:03:32;;;;;;;36.63;24.85;;;;;;;-146.25;100.00;52516.22;2096621;28;32640;-66
2024/03/11 00:04:34;;;;;;;39.88;25.33;;;;;;;-146.25;100.00;52514.19;2096405;28;36170;-64
2024/03/11 00:05:36;;;;;;;38.92;25.00;;;;;;;-146.25;100.00;52514.19;2096382;28;34823;-65
2024/03/11 00:06:39;;;;;;;45.08;26.88;;;;;;;-146.25;100.00;52528.38;2096492;28;34835;-65
2024/03/11 00:07:43;;;;;;;39.35;25.90;;;;;;;-146.25;100.00;52502.03;2096437;28;33851;-65
2024/03/11 00:08:47;;;;;;;43.22;25.67;;;;;;;-146.25;100.00;52522.28;2096577;28;36408;-64
2024/03/11 00:09:50;;;;;;;39.03;25.80;;;;;;;-146.25;100.00;52477.69;2096237;28;33999;-65
2024/03/11 00:10:55;;;;;;;37.97;24.15;;;;;;;-146.25;100.00;52506.06;2087780;28;34718;-65
2024/03/11 00:12:00;;;;;;;41.15;24.60;;;;;;;-146.25;100.00;52493.91;2087954;28;35505;-65
2024/03/11 00:13:02;;;;;;;38.67;24.90;;;;;;;-146.25;100.00;52497.97;2096857;28;20033;-65
2024/03/11 00:14:06;;;;;;;40.47;25.63;;;;;;;-146.25;100.00;52530.41;2096847;28;31467;-65
2024/03/11 00:15:11;;;;;;;40.03;25.05;;;;;;;-146.25;100.00;52504.03;2096571;28;27636;-65
2024/03/11 00:16:18;;;;;;;41.22;26.27;;;;;;;-146.25;100.00;52512.16;2096446;28;34584;-65
2024/03/11 00:17:21;;;;;;;42.03;24.60;;;;;;;-146.25;100.00;52540.53;2087493;28;34994;-65
2024/03/11 00:18:23;;;;;;;41.63;24.13;;;;;;;-146.25;100.00;52526.34;2087703;28;31392;-65
2024/03/11 00:19:26;;;;;;;41.63;24.58;;;;;;;-146.25;100.00;52504.03;2096701;28;32060;-65
2024/03/11 00:20:28;;;;;;;41.88;25.00;;;;;;;-146.25;100.00;52522.28;2095635;28;33824;-65
2024/03/11 00:21:31;;;;;;;44.13;26.08;;;;;;;-146.25;100.00;52530.41;2097142;28;20968;-65
2024/03/11 00:22:36;;;;;;;37.70;24.13;;;;;;;-146.25;100.00;52475.66;2096495;28;30990;-63
2024/03/11 00:23:40;;;;;;;38.75;24.25;;;;;;;-146.25;100.00;52493.91;2096848;28;25652;-65
2024/03/11 00:24:43;;;;;;;38.88;25.92;;;;;;;-146.25;100.00;52487.81;2096206;28;34719;-64
2024/03/11 00:25:45;;;;;;;38.63;23.98;;;;;;;-146.25;100.00;52510.13;2096540;28;31999;-66
2024/03/11 00:26:49;;;;;;;36.45;23.95;;;;;;;-146.25;100.00;52489.84;2095825;28;36984;-65
2024/03/11 00:27:51;;;;;;;39.30;25.02;;;;;;;-146.25;100.00;52489.84;2097060;28;20795;-64
2024/03/11 00:28:53;;;;;;;39.58;24.60;;;;;;;-146.25;100.00;52510.13;2095940;28;35292;-64
2024/03/11 00:29:54;;;;;;;41.80;24.63;;;;;;;-146.25;100.00;52493.91;2097870;28;20041;-66
2024/03/11 00:30:56;;;;;;;37.45;24.38;;;;;;;-146.25;100.00;52516.22;2096042;28;36870;-65
2024/03/11 00:31:58;;;;;;;42.80;25.45;;;;;;;-146.25;100.00;52502.03;2096698;28;35562;-66
2024/03/11 00:33:02;;;;;;;38.22;23.83;;;;;;;-146.25;100.00;52520.28;2096130;28;32941;-65
2024/03/11 00:34:04;;;;;;;42.65;25.55;;;;;;;-146.25;100.00;52469.56;2087355;28;36040;-64
2024/03/11 00:35:06;;;;;;;43.85;25.73;;;;;;;-146.25;100.00;52516.22;2087583;28;35603;-65
2024/03/11 00:36:10;;;;;;;40.88;24.83;;;;;;;-146.25;100.00;52510.13;2096736;28;35684;-64
2024/03/11 00:37:15;;;;;;;37.30;24.17;;;;;;;-146.25;100.00;52493.91;2095574;28;36080;-66
2024/03/11 00:38:18;;;;;;;38.67;25.02;;;;;;;-146.25;100.00;52479.72;2096412;28;34880;-64
2024/03/11 00:39:22;;;;;;;39.47;24.75;;;;;;;-146.25;100.00;52546.63;2095994;28;35448;-64
2024/03/11 00:40:24;;;;;;;37.67;24.48;;;;;;;-146.25;100.00;52534.47;2096449;28;33970;-65
2024/03/11 00:41:28;;;;;;;37.85;24.40;;;;;;;-146.25;100.00;52504.03;2096063;28;32971;-65
2024/03/11 00:42:33;;;;;;;41.17;25.60;;;;;;;-146.25;100.00;52516.22;2096313;28;34837;-65
2024/03/11 00:43:35;;;;;;;39.58;24.45;;;;;;;-146.25;100.00;52481.75;2095866;28;35738;-65
2024/03/11 00:44:37;;;;;;;40.75;23.90;;;;;;;-146.25;100.00;52518.25;2096283;28;33489;-64
2024/03/11 00:45:40;;;;;;;41.63;25.30;;;;;;;-146.25;100.00;52510.13;2087131;28;38633;-65
2024/03/11 00:46:41;;;;;;;38.03;23.95;;;;;;;-146.25;100.00;52489.84;2088091;28;28854;-65
2024/03/11 00:47:45;;;;;;;37.47;24.70;;;;;;;-146.25;100.00;52536.50;2096155;28;20040;-65
2024/03/11 00:48:48;;;;;;;40.33;24.65;;;;;;;-146.25;100.00;52506.06;2096693;28;20815;-64
2024/03/11 00:49:52;;;;;;;36.72;24.33;;;;;;;-146.25;100.00;52514.19;2096005;28;34342;-63
2024/03/11 00:50:54;;;;;;;37.72;23.88;;;;;;;-146.25;100.00;52536.50;2096511;28;38366;-65
2024/03/11 00:51:55;;;;;;;39.28;24.45;;;;;;;-146.25;100.00;52510.13;2096177;28;33147;-63
2024/03/11 00:52:57;;;;;;;39.25;24.85;;;;;;;-146.25;100.00;52487.81;2096028;28;32141;-65
2024/03/11 00:53:59;;;;;;;40.63;25.17;;;;;;;-146.25;100.00;52479.72;2096040;28;36516;-64
2024/03/11 00:55:02;;;;;;;38.05;24.75;;;;;;;-146.25;100.00;52514.19;2096933;28;20865;-64
2024/03/11 00:56:07;;;;;;;38.15;24.35;;;;;;;-146.25;100.00;52493.91;2096004;28;34132;-63
2024/03/11 00:57:09;;;;;;;36.05;23.90;;;;;;;-146.25;100.00;52526.34;2096521;28;33735;-66
2024/03/11 00:58:13;;;;;;;40.67;25.48;;;;;;;-146.25;100.00;52508.09;2096311;28;33259;-63
2024/03/11 00:59:14;;;;;;;37.97;24.60;;;;;;;-146.25;100.00;52512.16;2096025;28;37565;-64
2024/03/11 01:00:17;;;;;;;41.45;25.05;;;;;;;-146.25;100.00;52463.50;2096589;28;20045;-65
2024/03/11 01:01:19;;;;;;;36.60;23.42;;;;;;;-146.25;100.00;52510.13;2096465;28;34819;-65
2024/03/11 01:02:24;;;;;;;37.55;24.35;;;;;;;-146.25;100.00;52493.91;2095796;28;32223;-64
2024/03/11 01:03:26;;;;;;;41.08;25.17;;;;;;;-146.25;100.00;52534.47;2087180;28;34905;-65
2024/03/11 01:04:28;;;;;;;37.97;24.08;;;;;;;-146.25;100.00;52518.25;2087274;28;33639;-65
2024/03/11 01:05:31;;;;;;;37.40;23.85;;;;;;;-146.25;100.00;52550.69;2096493;28;31446;-64
2024/03/11 01:06:33;;;;;;;38.88;23.45;;;;;;;-146.25;100.00;52504.03;2095805;28;31886;-64
2024/03/11 01:07:36;;;;;;;35.95;23.70;;;;;;;-146.25;100.00;52500.00;2087060;28;36980;-64
2024/03/11 01:08:44;;;;;;;36.55;22.77;;;;;;;-146.25;100.00;52508.09;2088393;28;33690;-63
2024/03/11 01:09:49;;;;;;;37.58;23.90;;;;;;;-146.25;100.00;52528.38;2096808;28;20445;-63
2024/03/11 01:10:51;;;;;;;38.83;24.23;;;;;;;-146.25;100.00;52534.47;2096053;28;33106;-63
2024/03/11 01:11:52;;;;;;;37.25;24.00;;;;;;;-146.25;100.00;52487.81;2095833;28;33149;-65
2024/03/11 01:12:54;;;;;;;38.20;23.67;;;;;;;-146.25;100.00;52542.56;2096046;28;33633;-64
2024/03/11 01:13:56;;;;;;;36.70;22.38;;;;;;;-146.25;100.00;52548.66;2096297;28;32652;-65
2024/03/11 01:15:01;;;;;;;36.75;23.42;;;;;;;-146.25;100.00;52542.56;2095832;28;33065;-65
2024/03/11 01:16:07;;;;;;;35.70;22.80;;;;;;;-146.25;100.00;52540.53;2097111;28;21484;-65
2024/03/11 01:17:13;;;;;;;34.78;23.67;;;;;;;-146.25;100.00;52502.03;2096068;28;36999;-65
2024/03/11 01:18:16;;;;;;;36.38;22.80;;;;;;;-146.25;100.00;52526.34;2096574;28;31885;-65
2024/03/11 01:19:20;;;;;;;33.70;23.00;;;;;;;-146.25;100.00;52497.97;2095635;28;32545;-64
2024/03/11 01:20:24;;;;;;;38.97;24.10;;;;;;;-146.25;100.00;52524.31;2096466;28;20041;-65
2024/03/11 01:21:26;;;;;;;37.13;22.80;;;;;;;-146.25;100.00;52514.19;2096200;28;35083;-64
2024/03/11 01:22:27;;;;;;;39.38;24.73;;;;;;;-146.25;100.00;52504.03;2096074;28;33459;-65
2024/03/11 01:23:30;;;;;;;37.05;23.40;;;;;;;-146.25;100.00;52497.97;2096651;28;20091;-65
2024/03/11 01:24:32;;;;;;;33.13;21.95;;;;;;;-146.25;100.00;52506.06;2096088;28;35698;-64
2024/03/11 01:25:34;;;;;;;34.67;23.33;;;;;;;-146.25;100.00;52518.25;2096427;28;20092;-65
2024/03/11 01:26:36;;;;;;;37.78;23.77;;;;;;;-146.25;100.00;52518.25;2095919;28;37737;-65
2024/03/11 01:27:41;;;;;;;35.38;22.67;;;;;;;-146.25;100.00;52502.03;2086800;28;33260;-64
2024/03/11 01:28:43;;;;;;;35.75;23.30;;;;;;;-146.25;100.00;52518.25;2079175;28;32800;-64
2024/03/11 01:29:45;;;;;;;37.47;23.38;;;;;;;-146.25;100.00;52518.25;2087931;28;34606;-64
2024/03/11 01:30:47;;;;;;;36.97;23.52;;;;;;;-146.25;100.00;52518.25;2097666;28;20034;-65
2024/03/11 01:31:51;;;;;;;34.05;22.88;;;;;;;-146.25;100.00;52497.97;2097567;28;33106;-64
2024/03/11 01:32:53;;;;;;;36.65;23.23;;;;;;;-146.25;100.00;52526.34;2096703;28;35209;-65
2024/03/11 01:33:59;;;;;;;36.50;22.90;;;;;;;-146.25;100.00;52530.41;2097463;28;33066;-65
2024/03/11 01:35:06;;;;;;;37.75;23.83;;;;;;;-146.25;100.00;52487.81;2097602;28;35534;-66
2024/03/11 01:36:08;;;;;;;37.17;23.48;;;;;;;-146.25;100.00;52524.31;2088585;28;35132;-65
2024/03/11 01:37:12;;;;;;;34.95;23.15;;;;;;;-146.25;100.00;52506.06;2089626;28;31675;-65
2024/03/11 01:38:18;;;;;;;37.30;22.88;;;;;;;-146.25;100.00;52477.69;2097456;28;34072;-64
2024/03/11 01:39:27;;;;;;;36.53;22.98;;;;;;;-146.25;100.00;52502.03;2088490;28;37139;-64
2024/03/11 01:40:30;;;;;;;38.67;22.75;;;;;;;-146.25;100.00;52495.94;2090548;28;32426;-65
2024/03/11 01:41:32;;;;;;;37.63;22.88;;;;;;;-146.25;100.00;52518.25;2097236;28;35505;-64
2024/03/11 01:42:34;;;;;;;35.28;22.50;;;;;;;-146.25;100.00;52510.13;2097806;28;33227;-64
2024/03/11 01:43:36;;;;;;;34.50;22.92;;;;;;;-146.25;100.00;52540.53;2097639;28;33129;-65
2024/03/11 01:44:48;;;;;;;36.10;24.00;;;;;;;-146.25;100.00;52510.13;2097117;28;34851;-65
2024/03/11 01:45:51;;;;;;;35.63;22.27;;;;;;;-146.25;100.00;52548.66;2097973;28;20049;-65
2024/03/11 01:46:53;;;;;;;35.35;22.85;;;;;;;-146.25;100.00;52518.25;2097670;28;32784;-65
2024/03/11 01:47:58;;;;;;;39.88;22.52;;;;;;;-146.25;100.00;52512.16;2087700;28;33551;-65
2024/03/11 01:49:04;;;;;;;36.75;23.33;;;;;;;-146.25;100.00;52514.19;2080959;28;34341;-64
2024/03/11 01:50:07;;;;;;;33.92;22.38;;;;;;;-146.25;100.00;52504.03;2081110;28;36143;-64
2024/03/11 01:51:09;;;;;;;35.92;23.00;;;;;;;-146.25;100.00;52500.00;2090320;28;20237;-64
2024/03/11 01:52:18;;;;;;;35.38;23.40;;;;;;;-146.25;100.00;52524.31;2097217;28;36570;-65
2024/03/11 01:53:21;;;;;;;36.67;23.67;;;;;;;-146.25;100.00;52524.31;2087993;28;20041;-65
2024/03/11 01:54:25;;;;;;;33.70;22.00;;;;;;;-146.25;100.00;52512.16;2089535;28;33512;-65
2024/03/11 01:55:28;;;;;;;36.22;22.65;;;;;;;-146.25;100.00;52473.63;2088230;28;34131;-65
2024/03/11 01:56:31;;;;;;;33.80;21.70;;;;;;;-146.25;100.00;52538.53;2089497;28;20171;-65
2024/03/11 01:57:35;;;;;;;35.13;22.38;;;;;;;-146.25;100.00;52522.28;2088102;28;36613;-65
2024/03/11 01:58:40;;;;;;;33.72;22.63;;;;;;;-146.25;100.00;52514.19;2089418;28;20068;-65
2024/03/11 01:59:42;;;;;;;31.95;21.45;;;;;;;-146.25;100.00;52554.75;2088539;28;35507;-64
2024/03/11 02:00:45;;;;;;;35.72;23.45;;;;;;;-146.25;100.00;52506.06;2089592;28;20045;-65
2024/03/11 02:01:47;;;;;;;33.03;22.05;;;;;;;-146.25;100.00;52489.84;2097311;28;33832;-65
2024/03/11 02:02:53;;;;;;;37.30;24.45;;;;;;;-146.25;100.00;52526.34;2097019;28;35445;-65
2024/03/11 02:03:56;;;;;;;36.53;23.02;;;;;;;-146.25;100.00;52560.81;2097150;28;36530;-65
2024/03/11 02:04:58;;;;;;;38.13;22.92;;;;;;;-146.25;100.00;52526.34;2096763;28;36006;-65
2024/03/11 02:06:00;;;;;;;33.22;21.70;;;;;;;-146.25;100.00;52489.84;2097827;28;37147;-65
2024/03/11 02:07:04;;;;;;;33.45;22.10;;;;;;;-146.25;100.00;52477.69;2097280;28;33442;-65
2024/03/11 02:08:09;;;;;;;35.42;22.73;;;;;;;-146.25;100.00;52514.19;2088286;28;35635;-64
2024/03/11 02:09:14;;;;;;;33.42;21.55;;;;;;;-146.25;100.00;52542.56;2080971;28;32500;-64
2024/03/11 02:10:19;;;;;;;29.88;21.75;;;;;;;-146.25;100.00;52554.75;2089191;28;36372;-65
2024/03/11 02:11:21;;;;;;;35.88;23.30;;;;;;;-146.25;100.00;52506.06;2097971;28;20056;-65
2024/03/11 02:12:24;;;;;;;33.08;21.95;;;;;;;-146.25;100.00;52536.50;2096992;28;35928;-65
2024/03/11 02:13:26;;;;;;;38.33;23.40;;;;;;;-146.25;100.00;52493.91;2097158;28;31282;-65
2024/03/11 02:14:30;;;;;;;33.47;22.25;;;;;;;-146.25;100.00;52532.44;2097036;28;34610;-63
2024/03/11 02:15:33;;;;;;;32.20;21.33;;;;;;;-146.25;100.00;52506.06;2096778;28;38354;-64
2024/03/11 02:16:36;;;;;;;31.33;21.95;;;;;;;-146.25;100.00;52558.78;2097242;28;35158;-64
2024/03/11 02:17:39;;;;;;;37.15;22.20;;;;;;;-146.25;100.00;52514.19;2087458;28;36621;-65
2024/03/11 02:18:42;;;;;;;34.33;22.27;;;;;;;-146.25;100.00;52510.13;2080335;28;34222;-64
2024/03/11 02:19:43;;;;;;;35.85;21.50;;;;;;;-146.25;100.00;52520.28;2081051;28;20042;-64
2024/03/11 02:20:48;;;;;;;32.42;22.55;;;;;;;-146.25;100.00;52514.19;2088604;28;36324;-64
2024/03/11 02:21:51;;;;;;;34.03;21.65;;;;;;;-146.25;100.00;52510.13;2097156;28;36928;-64
2024/03/11 02:22:55;;;;;;;34.67;21.25;;;;;;;-146.25;100.00;52477.69;2096672;28;34376;-63
2024/03/11 02:23:58;;;;;;;34.22;21.27;;;;;;;-146.25;100.00;52518.25;2097447;28;20163;-64
2024/03/11 02:25:05;;;;;;;33.97;22.20;;;;;;;-146.25;100.00;52546.63;2097485;28;20048;-64
2024/03/11 02:26:07;;;;;;;31.30;20.75;;;;;;;-146.25;100.00;52532.44;2097438;28;20246;-65
2024/03/11 02:27:09;;;;;;;33.05;21.05;;;;;;;-146.25;100.00;52495.94;2096555;28;35859;-64
2024/03/11 02:28:11;;;;;;;32.35;21.17;;;;;;;-146.25;100.00;52508.09;2097377;28;34545;-66
2024/03/11 02:29:16;;;;;;;31.80;21.27;;;;;;;-146.25;100.00;52506.06;2097339;28;32473;-63
2024/03/11 02:30:18;;;;;;;34.30;21.95;;;;;;;-146.25;100.00;52516.22;2096975;28;36409;-65
2024/03/11 02:31:20;;;;;;;35.85;21.63;;;;;;;-146.25;100.00;52512.16;2097923;28;20168;-64
2024/03/11 02:32:22;;;;;;;34.55;21.40;;;;;;;-146.25;100.00;52522.28;2097078;28;34959;-65
2024/03/11 02:33:24;;;;;;;37.47;21.90;;;;;;;-146.25;100.00;52487.81;2096645;28;32727;-65
2024/03/11 02:34:26;;;;;;;32.80;21.10;;;;;;;-146.25;100.00;52524.31;2097102;28;36340;-65
2024/03/11 02:35:27;;;;;;;31.15;20.77;;;;;;;-146.25;100.00;52526.34;2096753;28;35315;-65
2024/03/11 02:36:30;;;;;;;34.20;22.15;;;;;;;-146.25;100.00;52485.81;2097827;28;20037;-65
2024/03/11 02:37:33;;;;;;;33.40;22.05;;;;;;;-146.25;100.00;52479.72;2096838;28;34741;-65
2024/03/11 02:38:37;;;;;;;32.08;20.48;;;;;;;-146.25;100.00;52510.13;2096899;28;35999;-65
2024/03/11 02:39:40;;;;;;;32.20;21.27;;;;;;;-146.25;100.00;52504.03;2097672;28;20941;-65
2024/03/11 02:40:42;;;;;;;32.13;21.92;;;;;;;-146.25;100.00;52530.41;2088014;28;36304;-65
2024/03/11 02:41:44;;;;;;;34.42;22.65;;;;;;;-146.25;100.00;52514.19;2088087;28;33348;-65
2024/03/11 02:42:46;;;;;;;32.60;21.17;;;;;;;-146.25;100.00;52493.91;2088041;28;36867;-65
2024/03/11 02:43:48;;;;;;;32.88;21.67;;;;;;;-146.25;100.00;52487.81;2087952;28;34301;-65
2024/03/11 02:44:49;;;;;;;32.90;21.48;;;;;;;-146.25;100.00;52534.47;2096837;28;36740;-64
2024/03/11 02:45:51;;;;;;;33.58;21.23;;;;;;;-146.25;100.00;52518.25;2097107;28;30186;-64
2024/03/11 02:46:53;;;;;;;33.30;20.90;;;;;;;-146.25;100.00;52506.06;2097334;28;34524;-65
2024/03/11 02:47:54;;;;;;;33.22;21.10;;;;;;;-146.25;100.00;52524.31;2096853;28;35948;-65
2024/03/11 02:48:59;;;;;;;36.53;21.92;;;;;;;-146.25;100.00;52520.28;2096309;28;34912;-65
2024/03/11 02:50:05;;;;;;;31.67;20.50;;;;;;;-146.25;100.00;52520.28;2088033;28;34781;-65
2024/03/11 02:51:07;;;;;;;31.85;20.30;;;;;;;-146.25;100.00;52562.84;2089586;28;34987;-65
2024/03/11 02:52:11;;;;;;;35.58;21.90;;;;;;;-146.25;100.00;52483.78;2096544;28;29937;-65
2024/03/11 02:53:13;;;;;;;33.58;21.88;;;;;;;-146.25;100.00;52508.09;2096026;28;36268;-65
2024/03/11 02:54:16;;;;;;;31.15;21.25;;;;;;;-146.25;100.00;52497.97;2096868;28;32107;-65
2024/03/11 02:55:21;;;;;;;32.15;20.40;;;;;;;-146.25;100.00;52465.53;2096911;28;34022;-65
2024/03/11 02:56:23;;;;;;;31.73;20.80;;;;;;;-146.25;100.00;52514.19;2097058;28;34841;-65
2024/03/11 02:57:25;;;;;;;32.22;20.73;;;;;;;-146.25;100.00;52473.63;2097078;28;33197;-65
2024/03/11 02:58:28;;;;;;;31.45;20.55;;;;;;;-146.25;100.00;52564.88;2096879;28;34731;-65
2024/03/11 02:59:30;;;;;;;32.88;20.98;;;;;;;-146.25;100.00;52528.38;2096937;28;33265;-65
2024/03/11 03:00:33;;;;;;;31.60;20.95;;;;;;;-146.25;100.00;52510.13;2095800;28;35415;-65
2024/03/11 03:01:35;;;;;;;32.28;20.52;;;;;;;-146.25;100.00;52514.19;2097170;28;33389;-65
2024/03/11 03:02:39;;;;;;;32.38;20.98;;;;;;;-146.25;100.00;52526.34;2096514;28;35442;-64
2024/03/11 03:03:42;;;;;;;34.42;21.40;;;;;;;-146.25;100.00;52520.28;2087892;28;33962;-64
2024/03/11 03:04:45;;;;;;;32.95;21.27;;;;;;;-146.25;100.00;52516.22;2088280;28;34810;-64
2024/03/11 03:05:49;;;;;;;30.73;20.85;;;;;;;-146.25;100.00;52552.72;2097946;28;20163;-64
2024/03/11 03:06:51;;;;;;;33.50;22.02;;;;;;;-146.25;100.00;52512.16;2097026;28;30002;-65
2024/03/11 03:07:52;;;;;;;31.65;20.38;;;;;;;-146.25;100.00;52502.03;2096726;28;34913;-64
2024/03/11 03:08:54;;;;;;;31.58;20.80;;;;;;;-146.25;100.00;52514.19;2097478;28;32647;-64
2024/03/11 03:09:56;;;;;;;32.35;21.35;;;;;;;-146.25;100.00;52491.88;2096875;28;34015;-64
2024/03/11 03:11:07;;;;;;;32.13;20.83;;;;;;;-146.25;100.00;52536.50;2096624;28;33111;-64
2024/03/11 03:12:09;;;;;;;;;;;;;;;-146.25;100.00;52504.03;2088430;28;30871;-64
2024/03/11 03:13:11;;;;;;;31.48;20.20;;;;;;;-146.25;100.00;52481.75;2089832;28;36358;-64
2024/03/11 03:14:12;;;;;;;34.00;21.15;;;;;;;-146.25;100.00;52497.97;2096943;28;33187;-65
2024/03/11 03:15:14;;;;;;;33.63;21.02;;;;;;;-146.25;100.00;52514.19;2096899;28;32923;-64
2024/03/11 03:16:16;;;;;;;32.70;20.80;;;;;;;-146.25;100.00;52491.88;2097084;28;30105;-65
2024/03/11 03:17:18;;;;;;;32.08;20.95;;;;;;;-146.25;100.00;52489.84;2097108;28;20175;-64
2024/03/11 03:18:20;;;;;;;30.60;20.85;;;;;;;-146.25;100.00;52534.47;2096881;28;31892;-64
2024/03/11 03:19:22;;;;;;;33.20;20.02;;;;;;;-146.25;100.00;52530.41;2096714;28;34287;-64
2024/03/11 03:20:24;;;;;;;29.85;19.98;;;;;;;-146.25;100.00;52489.84;2096829;28;33191;-65
2024/03/11 03:21:26;;;;;;;33.83;21.75;;;;;;;-146.25;100.00;52566.91;2096760;28;33412;-65
2024/03/11 03:22:28;;;;;;;33.25;20.35;;;;;;;-146.25;100.00;52522.28;2097230;28;24592;-64
2024/03/11 03:23:29;;;;;;;31.17;20.20;;;;;;;-146.25;100.00;52514.19;2096801;28;35225;-65
2024/03/11 03:24:31;;;;;;;32.25;21.08;;;;;;;-146.25;100.00;52514.19;2096861;28;32788;-64
2024/03/11 03:25:33;;;;;;;32.42;20.30;;;;;;;-146.25;100.00;52504.03;2096201;28;34392;-64
2024/03/11 03:26:35;;;;;;;32.30;20.65;;;;;;;-146.25;100.00;52512.16;2096883;28;36266;-64
2024/03/11 03:27:40;;;;;;;31.35;20.98;;;;;;;-146.25;100.00;52524.31;2096543;28;33535;-64
2024/03/11 03:28:41;;;;;;;32.10;21.10;;;;;;;-146.25;100.00;52526.34;2096630;28;34126;-64
2024/03/11 03:29:44;;;;;;;33.65;20.85;;;;;;;-146.25;100.00;52532.44;2096677;28;35206;-65
2024/03/11 03:30:50;;;;;;;31.95;20.17;;;;;;;-146.25;100.00;52493.91;2096911;28;32831;-65
2024/03/11 03:31:55;;;;;;;32.97;21.65;;;;;;;-146.25;100.00;52562.84;2097271;28;20168;-65
2024/03/11 03:32:57;;;;;;;34.20;20.83;;;;;;;-146.25;100.00;52520.28;2096678;28;33436;-64
2024/03/11 03:34:02;;;;;;;31.17;20.55;;;;;;;-146.25;100.00;52518.25;2097331;28;20045;-65
2024/03/11 03:35:06;;;;;;;31.40;20.88;;;;;;;-146.25;100.00;52506.06;2096695;28;35380;-64
2024/03/11 03:36:10;;;;;;;35.15;20.45;;;;;;;-146.25;100.00;52508.09;2097209;28;31679;-65
2024/03/11 03:37:14;;;;;;;31.95;20.38;;;;;;;-146.25;100.00;52526.34;2096488;28;31727;-64
2024/03/11 03:38:16;;;;;;;30.17;19.70;;;;;;;-146.25;100.00;52558.78;2096440;28;37897;-65
2024/03/11 03:39:18;;;;;;;32.88;20.50;;;;;;;-146.25;100.00;52508.09;2096783;28;32884;-63
2024/03/11 03:40:22;;;;;;;33.40;20.60;;;;;;;-146.25;100.00;52512.16;2096574;28;33868;-65
2024/03/11 03:41:24;;;;;;;32.28;19.92;;;;;;;-146.25;100.00;52510.13;2096522;28;35510;-65
2024/03/11 03:42:27;;;;;;;35.10;20.67;;;;;;;-146.25;100.00;52512.16;2096663;28;36472;-65
2024/03/11 03:43:28;;;;;;;29.42;19.73;;;;;;;-146.25;100.00;52497.97;2096347;28;36655;-65
2024/03/11 03:44:30;;;;;;;30.83;20.02;;;;;;;-146.25;100.00;52469.56;2097041;28;20037;-65
2024/03/11 03:45:32;;;;;;;31.35;19.58;;;;;;;-146.25;100.00;52550.69;2096384;28;34520;-65
2024/03/11 03:46:35;;;;;;;30.65;20.15;;;;;;;-146.25;100.00;52502.03;2096925;28;20063;-64
2024/03/11 03:47:37;;;;;;;32.63;20.63;;;;;;;-146.25;100.00;52510.13;2086941;28;35186;-64
2024/03/11 03:48:39;;;;;;;34.65;20.63;;;;;;;-146.25;100.00;52520.28;2086594;28;36930;-64
2024/03/11 03:49:41;;;;;;;31.63;20.70;;;;;;;-146.25;100.00;52495.94;2097031;28;32640;-65
2024/03/11 03:50:43;;;;;;;33.45;21.23;;;;;;;-146.25;100.00;52489.84;2087385;28;37931;-65
2024/03/11 03:51:47;;;;;;;32.22;21.17;;;;;;;-146.25;100.00;52542.56;2088216;28;33555;-65
2024/03/11 03:52:49;;;;;;;29.40;20.38;;;;;;;-146.25;100.00;52497.97;2095951;28;33772;-65
2024/03/11 03:53:51;;;;;;;30.63;20.75;;;;;;;-146.25;100.00;52528.38;2096466;28;37839;-65
2024/03/11 03:54:53;;;;;;;29.95;20.10;;;;;;;-146.25;100.00;52518.25;2096569;28;33955;-65
2024/03/11 03:55:55;;;;;;;30.58;20.00;;;;;;;-146.25;100.00;52508.09;2096727;28;35798;-65
2024/03/11 03:56:57;;;;;;;33.50;20.75;;;;;;;-146.25;100.00;52528.38;2087532;28;34467;-65
2024/03/11 03:57:58;;;;;;;33.35;19.60;;;;;;;-146.25;100.00;52489.84;2088274;28;30562;-65
2024/03/11 03:59:00;;;;;;;30.05;20.23;;;;;;;-146.25;100.00;52522.28;2096407;28;37647;-65
2024/03/11 04:00:05;;;;;;;31.90;19.30;;;;;;;-146.25;100.00;52516.22;2096658;28;34035;-65
2024/03/11 04:01:10;;;;;;;32.78;20.45;;;;;;;-146.25;100.00;52542.56;2096465;28;20080;-64
2024/03/11 04:02:12;;;;;;;33.65;20.33;;;;;;;-146.25;100.00;52516.22;2096027;28;37486;-65
2024/03/11 04:03:14;;;;;;;32.20;19.65;;;;;;;-146.25;100.00;52485.81;2096331;28;20894;-65
2024/03/11 04:04:16;;;;;;;31.02;20.20;;;;;;;-146.25;100.00;52528.38;2096746;28;27419;-65
2024/03/11 04:05:19;;;;;;;34.20;21.10;;;;;;;-146.25;100.00;52502.03;2096376;28;33613;-65
2024/03/11 04:06:21;;;;;;;31.55;20.08;;;;;;;-146.25;100.00;52532.44;2096718;28;34575;-65
2024/03/11 04:07:23;;;;;;;32.15;20.77;;;;;;;-146.25;100.00;52522.28;2096073;28;38081;-65
2024/03/11 04:08:24;;;;;;;33.30;20.77;;;;;;;-146.25;100.00;52530.41;2096561;28;31352;-65
2024/03/11 04:09:29;;;;;;;32.40;20.65;;;;;;;-146.25;100.00;52461.47;2096179;28;34593;-65
2024/03/11 04:10:34;;;;;;;34.50;21.33;;;;;;;-146.25;100.00;52510.13;2096510;28;36411;-65
2024/03/11 04:11:38;;;;;;;32.15;20.27;;;;;;;-146.25;100.00;52502.03;2096545;28;37507;-65
2024/03/11 04:12:47;;;;;;;33.92;21.35;;;;;;;-146.25;100.00;52502.03;2096711;28;33269;-65
2024/03/11 04:13:49;;;;;;;32.55;21.10;;;;;;;-146.25;100.00;52536.50;2096262;28;36989;-64
2024/03/11 04:14:51;;;;;;;33.17;20.08;;;;;;;-146.25;100.00;52530.41;2096580;28;32418;-64
2024/03/11 04:15:57;;;;;;;35.67;21.30;;;;;;;-146.25;100.00;52473.63;2096342;28;36543;-65
2024/03/11 04:16:59;;;;;;;30.40;20.38;;;;;;;-146.25;100.00;52550.69;2096737;28;20026;-64
2024/03/11 04:18:05;;;;;;;33.47;19.73;;;;;;;-146.25;100.00;52495.94;2095960;28;37152;-65
2024/03/11 04:19:08;;;;;;;30.80;20.00;;;;;;;-146.25;100.00;52508.09;2096690;28;33097;-65
2024/03/11 04:20:12;;;;;;;32.20;20.58;;;;;;;-146.25;100.00;52479.72;2096450;28;33162;-65
2024/03/11 04:21:16;;;;;;;33.95;20.33;;;;;;;-146.25;100.00;52514.19;2087932;28;20993;-65
2024/03/11 04:22:19;;;;;;;29.50;20.45;;;;;;;-146.25;100.00;52493.91;2087821;28;33784;-65
2024/03/11 04:23:22;;;;;;;34.78;21.15;;;;;;;-146.25;100.00;52530.41;2096690;28;35689;-65
2024/03/11 04:24:25;;;;;;;30.85;20.42;;;;;;;-146.25;100.00;52528.38;2095985;28;33504;-64
2024/03/11 04:25:31;;;;;;;28.83;19.25;;;;;;;-146.25;100.00;52502.03;2096984;28;20033;-65
2024/03/11 04:26:33;;;;;;;32.05;19.88;;;;;;;-146.25;100.00;52530.41;2096196;28;34037;-63
2024/03/11 04:27:35;;;;;;;29.52;19.75;;;;;;;-146.25;100.00;52542.56;2096656;28;33661;-66
2024/03/11 04:28:37;;;;;;;33.08;20.02;;;;;;;-146.25;100.00;52534.47;2096669;28;32410;-65
2024/03/11 04:29:39;;;;;;;32.42;20.33;;;;;;;-146.25;100.00;52487.81;2095700;28;33087;-65
2024/03/11 04:30:40;;;;;;;34.03;21.33;;;;;;;-146.25;100.00;52489.84;2095617;28;35886;-65
2024/03/11 04:31:44;;;;;;;29.25;20.63;;;;;;;-146.25;100.00;52502.03;2096578;28;34773;-65
2024/03/11 04:32:53;;;;;;;30.17;20.05;;;;;;;-146.25;100.00;52506.06;2095953;28;31838;-65
2024/03/11 04:33:55;;;;;;;30.48;19.10;;;;;;;-146.25;100.00;52524.31;2088412;28;20119;-65
2024/03/11 04:34:57;;;;;;;31.55;20.17;;;;;;;-146.25;100.00;52506.06;2088511;28;33816;-65
2024/03/11 04:36:00;;;;;;;29.95;19.75;;;;;;;-146.25;100.00;52516.22;2096435;28;33489;-64
2024/03/11 04:37:01;;;;;;;32.15;19.25;;;;;;;-146.25;100.00;52518.25;2096319;28;29915;-65
2024/03/11 04:38:06;;;;;;;33.15;21.23;;;;;;;-146.25;100.00;52489.84;2096369;28;30814;-64
2024/03/11 04:39:14;;;;;;;30.63;18.90;;;;;;;-146.25;100.00;52534.47;2096211;28;33280;-65
2024/03/11 04:40:16;;;;;;;35.50;20.52;;;;;;;-146.25;100.00;52566.91;2096905;28;29412;-65